sensor_id;sensor_type;location;lat;lon;timestamp;P1;durP1;ratioP1;P2;durP2;ratioP2
5379;SDS011;2713;42.680;23.310;2023-03-01T00:00:00;3.40;;;3.13;;
5379;SDS011;2713;42.680;23.310;2023-03-01T00:02:36;5.23;;;4.10;;
5379;SDS011;2713;42.680;23.310;2023-03-01T00:05:04;3.97;;;3.30;;
5379;SDS011;2713;42.680;23.310;2023-03-01T00:07:32;3.77;;;3.43;;
5379;SDS011;2713;42.680;23.310;2023-03-01T00:09:59;3.83;;;3.40;;
5379;SDS011;2713;42.680;23.310;2023-03-01T00:12:27;3.80;;;3.30;;
5379;SDS011;2713;42.680;23.310;2023-03-01T00:14:54;3.58;;;3.28;;
5379;SDS011;2713;42.680;23.310;2023-03-01T00:17:20;3.25;;;3.05;;
5379;SDS011;2713;42.680;23.310;2023-03-01T00:19:47;6.35;;;4.07;;
5379;SDS011;2713;42.680;23.310;2023-03-01T00:22:14;4.50;;;3.77;;
5379;SDS011;2713;42.680;23.310;2023-03-01T00:24:41;4.05;;;3.75;;
5379;SDS011;2713;42.680;23.310;2023-03-01T00:27:08;4.03;;;3.60;;
5379;SDS011;2713;42.680;23.310;2023-03-01T00:29:36;3.38;;;3.08;;
5379;SDS011;2713;42.680;23.310;2023-03-01T00:32:03;3.72;;;3.42;;
5379;SDS011;2713;42.680;23.310;2023-03-01T00:34:30;3.85;;;3.45;;
5379;SDS011;2713;42.680;23.310;2023-03-01T00:36:56;3.20;;;2.90;;
5379;SDS011;2713;42.680;23.310;2023-03-01T00:39:30;2.93;;;2.73;;
5379;SDS011;2713;42.680;23.310;2023-03-01T00:41:57;2.63;;;2.53;;
5379;SDS011;2713;42.680;23.310;2023-03-01T00:44:24;3.40;;;3.10;;
5379;SDS011;2713;42.680;23.310;2023-03-01T00:46:52;3.20;;;2.95;;
5379;SDS011;2713;42.680;23.310;2023-03-01T00:49:19;3.63;;;3.30;;
5379;SDS011;2713;42.680;23.310;2023-03-01T00:51:46;3.13;;;2.93;;
5379;SDS011;2713;42.680;23.310;2023-03-01T00:54:13;2.67;;;2.47;;
5379;SDS011;2713;42.680;23.310;2023-03-01T00:56:39;3.30;;;2.88;;
5379;SDS011;2713;42.680;23.310;2023-03-01T00:59:06;3.00;;;2.70;;
5379;SDS011;2713;42.680;23.310;2023-03-01T01:01:33;2.60;;;2.40;;
5379;SDS011;2713;42.680;23.310;2023-03-01T01:04:02;3.03;;;2.72;;
5379;SDS011;2713;42.680;23.310;2023-03-01T01:06:32;2.83;;;2.63;;
5379;SDS011;2713;42.680;23.310;2023-03-01T01:09:00;2.85;;;2.60;;
5379;SDS011;2713;42.680;23.310;2023-03-01T01:11:29;2.87;;;2.67;;
5379;SDS011;2713;42.680;23.310;2023-03-01T01:13:56;3.03;;;2.73;;
5379;SDS011;2713;42.680;23.310;2023-03-01T01:16:24;2.30;;;2.10;;
5379;SDS011;2713;42.680;23.310;2023-03-01T01:18:52;2.87;;;2.70;;
5379;SDS011;2713;42.680;23.310;2023-03-01T01:21:21;2.53;;;2.33;;
5379;SDS011;2713;42.680;23.310;2023-03-01T01:23:50;2.53;;;2.33;;
5379;SDS011;2713;42.680;23.310;2023-03-01T01:26:18;2.55;;;2.45;;
5379;SDS011;2713;42.680;23.310;2023-03-01T01:28:48;2.53;;;2.33;;
5379;SDS011;2713;42.680;23.310;2023-03-01T01:31:16;2.25;;;2.15;;
5379;SDS011;2713;42.680;23.310;2023-03-01T01:33:43;2.90;;;2.67;;
5379;SDS011;2713;42.680;23.310;2023-03-01T01:36:11;2.22;;;2.05;;
5379;SDS011;2713;42.680;23.310;2023-03-01T01:38:40;2.20;;;2.10;;
5379;SDS011;2713;42.680;23.310;2023-03-01T01:41:08;2.33;;;2.20;;
5379;SDS011;2713;42.680;23.310;2023-03-01T01:43:37;2.00;;;1.90;;
5379;SDS011;2713;42.680;23.310;2023-03-01T01:46:10;4.22;;;2.10;;
5379;SDS011;2713;42.680;23.310;2023-03-01T01:48:45;2.30;;;2.10;;
5379;SDS011;2713;42.680;23.310;2023-03-01T01:51:17;2.13;;;2.03;;
5379;SDS011;2713;42.680;23.310;2023-03-01T01:53:47;2.00;;;1.90;;
5379;SDS011;2713;42.680;23.310;2023-03-01T01:56:18;2.00;;;1.90;;
5379;SDS011;2713;42.680;23.310;2023-03-01T01:58:47;2.13;;;2.03;;
5379;SDS011;2713;42.680;23.310;2023-03-01T02:01:15;2.10;;;2.00;;
5379;SDS011;2713;42.680;23.310;2023-03-01T02:03:42;1.90;;;1.80;;
5379;SDS011;2713;42.680;23.310;2023-03-01T02:06:13;2.15;;;2.05;;
5379;SDS011;2713;42.680;23.310;2023-03-01T02:08:48;2.00;;;1.90;;
5379;SDS011;2713;42.680;23.310;2023-03-01T02:11:17;2.03;;;1.92;;
5379;SDS011;2713;42.680;23.310;2023-03-01T02:13:47;2.40;;;2.30;;
5379;SDS011;2713;42.680;23.310;2023-03-01T02:16:15;2.22;;;2.13;;
5379;SDS011;2713;42.680;23.310;2023-03-01T02:18:42;1.98;;;1.88;;
5379;SDS011;2713;42.680;23.310;2023-03-01T02:21:17;1.90;;;1.80;;
5379;SDS011;2713;42.680;23.310;2023-03-01T02:23:54;2.20;;;2.10;;
5379;SDS011;2713;42.680;23.310;2023-03-01T02:26:23;2.00;;;1.90;;
5379;SDS011;2713;42.680;23.310;2023-03-01T02:28:58;2.30;;;2.20;;
5379;SDS011;2713;42.680;23.310;2023-03-01T02:34:23;2.65;;;2.55;;
5379;SDS011;2713;42.680;23.310;2023-03-01T02:36:54;2.65;;;2.45;;
5379;SDS011;2713;42.680;23.310;2023-03-01T02:39:24;2.40;;;2.30;;
5379;SDS011;2713;42.680;23.310;2023-03-01T02:41:55;2.38;;;2.28;;
5379;SDS011;2713;42.680;23.310;2023-03-01T02:44:25;2.65;;;2.45;;
5379;SDS011;2713;42.680;23.310;2023-03-01T02:46:52;2.40;;;2.30;;
5379;SDS011;2713;42.680;23.310;2023-03-01T02:49:23;2.42;;;2.25;;
5379;SDS011;2713;42.680;23.310;2023-03-01T02:55:05;2.40;;;2.30;;
5379;SDS011;2713;42.680;23.310;2023-03-01T02:57:35;2.55;;;2.35;;
5379;SDS011;2713;42.680;23.310;2023-03-01T03:00:07;2.67;;;2.47;;
5379;SDS011;2713;42.680;23.310;2023-03-01T03:02:44;10.88;;;2.63;;
5379;SDS011;2713;42.680;23.310;2023-03-01T03:05:19;2.40;;;2.20;;
5379;SDS011;2713;42.680;23.310;2023-03-01T03:07:55;2.20;;;2.10;;
5379;SDS011;2713;42.680;23.310;2023-03-01T03:10:23;2.55;;;2.35;;
5379;SDS011;2713;42.680;23.310;2023-03-01T03:13:05;2.28;;;2.17;;
5379;SDS011;2713;42.680;23.310;2023-03-01T03:15:42;2.78;;;2.58;;
5379;SDS011;2713;42.680;23.310;2023-03-01T03:18:10;2.60;;;2.40;;
5379;SDS011;2713;42.680;23.310;2023-03-01T03:20:45;3.30;;;3.00;;
5379;SDS011;2713;42.680;23.310;2023-03-01T03:23:12;2.97;;;2.75;;
5379;SDS011;2713;42.680;23.310;2023-03-01T03:25:39;3.50;;;3.20;;
5379;SDS011;2713;42.680;23.310;2023-03-01T03:28:06;3.75;;;3.45;;
5379;SDS011;2713;42.680;23.310;2023-03-01T03:30:36;3.20;;;2.90;;
5379;SDS011;2713;42.680;23.310;2023-03-01T03:33:06;3.40;;;3.10;;
5379;SDS011;2713;42.680;23.310;2023-03-01T03:35:37;2.72;;;2.63;;
5379;SDS011;2713;42.680;23.310;2023-03-01T03:38:06;3.10;;;2.50;;
5379;SDS011;2713;42.680;23.310;2023-03-01T03:40:41;2.80;;;2.60;;
5379;SDS011;2713;42.680;23.310;2023-03-01T03:43:11;3.05;;;2.67;;
5379;SDS011;2713;42.680;23.310;2023-03-01T03:45:39;3.20;;;2.97;;
5379;SDS011;2713;42.680;23.310;2023-03-01T03:48:08;3.00;;;2.80;;
5379;SDS011;2713;42.680;23.310;2023-03-01T03:50:46;3.35;;;2.63;;
5379;SDS011;2713;42.680;23.310;2023-03-01T03:53:15;3.53;;;3.03;;
5379;SDS011;2713;42.680;23.310;2023-03-01T03:55:43;3.30;;;3.00;;
5379;SDS011;2713;42.680;23.310;2023-03-01T03:58:32;3.67;;;3.05;;
5379;SDS011;2713;42.680;23.310;2023-03-01T04:01:18;3.42;;;3.13;;
5379;SDS011;2713;42.680;23.310;2023-03-01T04:03:47;3.00;;;2.80;;
5379;SDS011;2713;42.680;23.310;2023-03-01T04:06:19;2.92;;;2.67;;
5379;SDS011;2713;42.680;23.310;2023-03-01T04:08:46;2.95;;;2.75;;
5379;SDS011;2713;42.680;23.310;2023-03-01T04:11:16;2.90;;;2.70;;
5379;SDS011;2713;42.680;23.310;2023-03-01T04:13:55;3.63;;;2.72;;
5379;SDS011;2713;42.680;23.310;2023-03-01T04:16:23;2.60;;;2.40;;
5379;SDS011;2713;42.680;23.310;2023-03-01T04:18:51;2.30;;;2.20;;
5379;SDS011;2713;42.680;23.310;2023-03-01T04:21:24;2.30;;;2.20;;
5379;SDS011;2713;42.680;23.310;2023-03-01T04:23:51;2.53;;;2.40;;
5379;SDS011;2713;42.680;23.310;2023-03-01T04:26:18;2.45;;;2.25;;
5379;SDS011;2713;42.680;23.310;2023-03-01T04:28:46;2.35;;;2.25;;
5379;SDS011;2713;42.680;23.310;2023-03-01T04:31:15;2.83;;;2.63;;
5379;SDS011;2713;42.680;23.310;2023-03-01T04:33:44;2.58;;;2.38;;
5379;SDS011;2713;42.680;23.310;2023-03-01T04:36:15;2.95;;;2.75;;
5379;SDS011;2713;42.680;23.310;2023-03-01T04:38:42;2.85;;;2.65;;
5379;SDS011;2713;42.680;23.310;2023-03-01T04:41:12;3.05;;;2.80;;
5379;SDS011;2713;42.680;23.310;2023-03-01T04:43:40;2.28;;;2.15;;
5379;SDS011;2713;42.680;23.310;2023-03-01T04:46:08;3.10;;;2.50;;
5379;SDS011;2713;42.680;23.310;2023-03-01T04:48:38;2.63;;;2.42;;
5379;SDS011;2713;42.680;23.310;2023-03-01T04:51:06;3.17;;;2.90;;
5379;SDS011;2713;42.680;23.310;2023-03-01T04:53:35;4.32;;;2.42;;
5379;SDS011;2713;42.680;23.310;2023-03-01T04:56:02;2.30;;;2.20;;
5379;SDS011;2713;42.680;23.310;2023-03-01T04:58:29;2.50;;;2.30;;
5379;SDS011;2713;42.680;23.310;2023-03-01T05:00:56;3.00;;;2.80;;
5379;SDS011;2713;42.680;23.310;2023-03-01T05:03:23;2.90;;;2.70;;
5379;SDS011;2713;42.680;23.310;2023-03-01T05:05:51;2.70;;;2.50;;
5379;SDS011;2713;42.680;23.310;2023-03-01T05:08:24;4.97;;;2.60;;
5379;SDS011;2713;42.680;23.310;2023-03-01T05:10:53;2.70;;;2.50;;
5379;SDS011;2713;42.680;23.310;2023-03-01T05:13:20;2.80;;;2.60;;
5379;SDS011;2713;42.680;23.310;2023-03-01T05:15:48;2.88;;;2.67;;
5379;SDS011;2713;42.680;23.310;2023-03-01T05:18:15;3.20;;;2.90;;
5379;SDS011;2713;42.680;23.310;2023-03-01T05:20:42;2.60;;;2.40;;
5379;SDS011;2713;42.680;23.310;2023-03-01T05:23:09;2.80;;;2.60;;
5379;SDS011;2713;42.680;23.310;2023-03-01T05:25:36;2.90;;;2.60;;
5379;SDS011;2713;42.680;23.310;2023-03-01T05:28:07;2.92;;;2.72;;
5379;SDS011;2713;42.680;23.310;2023-03-01T05:30:37;2.65;;;2.45;;
5379;SDS011;2713;42.680;23.310;2023-03-01T05:33:05;3.05;;;2.85;;
5379;SDS011;2713;42.680;23.310;2023-03-01T05:35:35;5.47;;;5.07;;
5379;SDS011;2713;42.680;23.310;2023-03-01T05:38:02;3.22;;;2.90;;
5379;SDS011;2713;42.680;23.310;2023-03-01T05:40:29;4.50;;;3.15;;
5379;SDS011;2713;42.680;23.310;2023-03-01T05:42:56;3.28;;;3.08;;
5379;SDS011;2713;42.680;23.310;2023-03-01T05:45:25;3.00;;;2.80;;
5379;SDS011;2713;42.680;23.310;2023-03-01T05:47:53;3.47;;;3.17;;
5379;SDS011;2713;42.680;23.310;2023-03-01T05:50:21;2.60;;;2.40;;
5379;SDS011;2713;42.680;23.310;2023-03-01T05:52:50;4.10;;;3.20;;
5379;SDS011;2713;42.680;23.310;2023-03-01T05:55:19;3.30;;;3.00;;
5379;SDS011;2713;42.680;23.310;2023-03-01T05:57:47;2.95;;;2.75;;
5379;SDS011;2713;42.680;23.310;2023-03-01T06:00:15;4.05;;;3.00;;
5379;SDS011;2713;42.680;23.310;2023-03-01T06:02:45;6.30;;;3.40;;
5379;SDS011;2713;42.680;23.310;2023-03-01T06:05:13;4.07;;;3.70;;
5379;SDS011;2713;42.680;23.310;2023-03-01T06:07:40;5.57;;;3.88;;
5379;SDS011;2713;42.680;23.310;2023-03-01T06:10:09;4.80;;;3.97;;
5379;SDS011;2713;42.680;23.310;2023-03-01T06:12:37;6.15;;;3.80;;
5379;SDS011;2713;42.680;23.310;2023-03-01T06:15:06;4.88;;;4.10;;
5379;SDS011;2713;42.680;23.310;2023-03-01T06:17:35;5.20;;;3.95;;
5379;SDS011;2713;42.680;23.310;2023-03-01T06:20:05;4.10;;;3.80;;
5379;SDS011;2713;42.680;23.310;2023-03-01T06:22:34;3.85;;;3.55;;
5379;SDS011;2713;42.680;23.310;2023-03-01T06:25:01;3.93;;;3.63;;
5379;SDS011;2713;42.680;23.310;2023-03-01T06:27:28;3.90;;;3.50;;
5379;SDS011;2713;42.680;23.310;2023-03-01T06:29:54;4.25;;;3.85;;
5379;SDS011;2713;42.680;23.310;2023-03-01T06:32:21;5.72;;;3.65;;
5379;SDS011;2713;42.680;23.310;2023-03-01T06:34:49;4.45;;;3.40;;
5379;SDS011;2713;42.680;23.310;2023-03-01T06:37:17;5.07;;;4.47;;
5379;SDS011;2713;42.680;23.310;2023-03-01T06:39:44;5.13;;;4.57;;
5379;SDS011;2713;42.680;23.310;2023-03-01T06:42:10;6.90;;;3.80;;
5379;SDS011;2713;42.680;23.310;2023-03-01T06:44:37;4.25;;;3.78;;
5379;SDS011;2713;42.680;23.310;2023-03-01T06:47:04;3.75;;;3.40;;
5379;SDS011;2713;42.680;23.310;2023-03-01T06:49:31;5.80;;;3.78;;
5379;SDS011;2713;42.680;23.310;2023-03-01T06:51:58;4.60;;;3.40;;
5379;SDS011;2713;42.680;23.310;2023-03-01T06:54:26;3.58;;;3.35;;
5379;SDS011;2713;42.680;23.310;2023-03-01T06:56:53;3.43;;;3.13;;
5379;SDS011;2713;42.680;23.310;2023-03-01T06:59:20;3.50;;;3.20;;
5379;SDS011;2713;42.680;23.310;2023-03-01T07:01:47;4.07;;;3.67;;
5379;SDS011;2713;42.680;23.310;2023-03-01T07:04:15;3.67;;;3.20;;
5379;SDS011;2713;42.680;23.310;2023-03-01T07:06:42;3.80;;;3.10;;
5379;SDS011;2713;42.680;23.310;2023-03-01T07:09:09;3.92;;;3.58;;
5379;SDS011;2713;42.680;23.310;2023-03-01T07:11:37;3.90;;;3.60;;
5379;SDS011;2713;42.680;23.310;2023-03-01T07:14:04;3.40;;;3.13;;
5379;SDS011;2713;42.680;23.310;2023-03-01T07:16:32;4.17;;;3.87;;
5379;SDS011;2713;42.680;23.310;2023-03-01T07:18:58;3.80;;;3.43;;
5379;SDS011;2713;42.680;23.310;2023-03-01T07:21:25;5.22;;;3.30;;
5379;SDS011;2713;42.680;23.310;2023-03-01T07:23:52;4.23;;;3.27;;
5379;SDS011;2713;42.680;23.310;2023-03-01T07:26:19;2.92;;;2.72;;
5379;SDS011;2713;42.680;23.310;2023-03-01T07:28:47;6.50;;;3.83;;
5379;SDS011;2713;42.680;23.310;2023-03-01T07:31:14;3.40;;;3.10;;
5379;SDS011;2713;42.680;23.310;2023-03-01T07:33:41;3.37;;;3.17;;
5379;SDS011;2713;42.680;23.310;2023-03-01T07:36:08;4.00;;;3.65;;
5379;SDS011;2713;42.680;23.310;2023-03-01T07:38:35;3.83;;;3.42;;
5379;SDS011;2713;42.680;23.310;2023-03-01T07:41:03;3.80;;;3.40;;
5379;SDS011;2713;42.680;23.310;2023-03-01T07:43:31;4.15;;;3.85;;
5379;SDS011;2713;42.680;23.310;2023-03-01T07:45:59;4.97;;;3.80;;
5379;SDS011;2713;42.680;23.310;2023-03-01T07:48:27;3.80;;;3.50;;
5379;SDS011;2713;42.680;23.310;2023-03-01T07:50:54;5.53;;;3.97;;
5379;SDS011;2713;42.680;23.310;2023-03-01T07:53:23;4.10;;;3.80;;
5379;SDS011;2713;42.680;23.310;2023-03-01T07:55:59;4.55;;;3.70;;
5379;SDS011;2713;42.680;23.310;2023-03-01T07:58:26;3.78;;;3.25;;
5379;SDS011;2713;42.680;23.310;2023-03-01T08:00:53;4.20;;;3.80;;
5379;SDS011;2713;42.680;23.310;2023-03-01T08:03:21;3.35;;;3.05;;
5379;SDS011;2713;42.680;23.310;2023-03-01T08:05:48;3.95;;;3.40;;
5379;SDS011;2713;42.680;23.310;2023-03-01T08:08:15;3.13;;;2.85;;
5379;SDS011;2713;42.680;23.310;2023-03-01T08:10:42;3.63;;;3.40;;
5379;SDS011;2713;42.680;23.310;2023-03-01T08:13:08;2.97;;;2.77;;
5379;SDS011;2713;42.680;23.310;2023-03-01T08:15:35;3.70;;;3.30;;
5379;SDS011;2713;42.680;23.310;2023-03-01T08:18:02;3.88;;;2.75;;
5379;SDS011;2713;42.680;23.310;2023-03-01T08:20:31;3.70;;;2.95;;
5379;SDS011;2713;42.680;23.310;2023-03-01T08:22:58;3.47;;;3.08;;
5379;SDS011;2713;42.680;23.310;2023-03-01T08:25:25;3.33;;;3.00;;
5379;SDS011;2713;42.680;23.310;2023-03-01T08:27:52;4.03;;;3.63;;
5379;SDS011;2713;42.680;23.310;2023-03-01T08:30:19;3.53;;;3.10;;
5379;SDS011;2713;42.680;23.310;2023-03-01T08:32:46;3.30;;;2.97;;
5379;SDS011;2713;42.680;23.310;2023-03-01T08:35:12;4.13;;;3.72;;
5379;SDS011;2713;42.680;23.310;2023-03-01T08:37:41;4.13;;;3.83;;
5379;SDS011;2713;42.680;23.310;2023-03-01T08:40:08;4.33;;;3.93;;
5379;SDS011;2713;42.680;23.310;2023-03-01T08:42:36;6.13;;;5.00;;
5379;SDS011;2713;42.680;23.310;2023-03-01T08:45:03;5.17;;;4.77;;
5379;SDS011;2713;42.680;23.310;2023-03-01T08:47:30;4.20;;;3.80;;
5379;SDS011;2713;42.680;23.310;2023-03-01T08:49:58;4.17;;;3.43;;
5379;SDS011;2713;42.680;23.310;2023-03-01T08:52:25;3.10;;;2.90;;
5379;SDS011;2713;42.680;23.310;2023-03-01T08:54:54;3.30;;;3.10;;
5379;SDS011;2713;42.680;23.310;2023-03-01T08:57:21;3.80;;;3.50;;
5379;SDS011;2713;42.680;23.310;2023-03-01T08:59:48;3.50;;;3.20;;
5379;SDS011;2713;42.680;23.310;2023-03-01T09:02:16;3.37;;;3.10;;
5379;SDS011;2713;42.680;23.310;2023-03-01T09:04:44;3.20;;;3.00;;
5379;SDS011;2713;42.680;23.310;2023-03-01T09:07:11;2.83;;;2.63;;
5379;SDS011;2713;42.680;23.310;2023-03-01T09:09:37;3.00;;;2.80;;
5379;SDS011;2713;42.680;23.310;2023-03-01T09:12:06;2.87;;;2.70;;
5379;SDS011;2713;42.680;23.310;2023-03-01T09:14:33;3.03;;;2.83;;
5379;SDS011;2713;42.680;23.310;2023-03-01T09:17:02;2.87;;;2.67;;
5379;SDS011;2713;42.680;23.310;2023-03-01T09:19:29;3.40;;;3.20;;
5379;SDS011;2713;42.680;23.310;2023-03-01T09:21:55;2.77;;;2.57;;
5379;SDS011;2713;42.680;23.310;2023-03-01T09:24:23;2.80;;;2.60;;
5379;SDS011;2713;42.680;23.310;2023-03-01T09:26:52;3.00;;;2.50;;
5379;SDS011;2713;42.680;23.310;2023-03-01T09:29:21;2.97;;;2.37;;
5379;SDS011;2713;42.680;23.310;2023-03-01T09:31:49;6.20;;;2.03;;
5379;SDS011;2713;42.680;23.310;2023-03-01T09:34:16;2.60;;;2.40;;
5379;SDS011;2713;42.680;23.310;2023-03-01T09:36:48;2.70;;;2.50;;
5379;SDS011;2713;42.680;23.310;2023-03-01T09:39:15;2.40;;;2.30;;
5379;SDS011;2713;42.680;23.310;2023-03-01T09:41:47;3.03;;;2.83;;
5379;SDS011;2713;42.680;23.310;2023-03-01T09:44:25;2.20;;;2.00;;
5379;SDS011;2713;42.680;23.310;2023-03-01T09:46:57;2.37;;;2.27;;
5379;SDS011;2713;42.680;23.310;2023-03-01T09:49:25;2.73;;;2.53;;
5379;SDS011;2713;42.680;23.310;2023-03-01T09:51:57;2.13;;;2.00;;
5379;SDS011;2713;42.680;23.310;2023-03-01T09:54:27;3.63;;;2.30;;
5379;SDS011;2713;42.680;23.310;2023-03-01T09:56:57;3.80;;;2.50;;
5379;SDS011;2713;42.680;23.310;2023-03-01T09:59:36;2.80;;;2.10;;
5379;SDS011;2713;42.680;23.310;2023-03-01T10:02:20;2.20;;;2.00;;
5379;SDS011;2713;42.680;23.310;2023-03-01T10:04:53;2.57;;;2.23;;
5379;SDS011;2713;42.680;23.310;2023-03-01T10:07:27;3.00;;;2.10;;
5379;SDS011;2713;42.680;23.310;2023-03-01T10:09:59;2.43;;;2.13;;
5379;SDS011;2713;42.680;23.310;2023-03-01T10:12:32;2.60;;;2.00;;
5379;SDS011;2713;42.680;23.310;2023-03-01T10:15:04;2.20;;;2.00;;
5379;SDS011;2713;42.680;23.310;2023-03-01T10:17:36;2.07;;;1.97;;
5379;SDS011;2713;42.680;23.310;2023-03-01T10:20:14;2.50;;;2.30;;
5379;SDS011;2713;42.680;23.310;2023-03-01T10:22:43;1.90;;;1.80;;
5379;SDS011;2713;42.680;23.310;2023-03-01T10:25:15;3.20;;;1.60;;
5379;SDS011;2713;42.680;23.310;2023-03-01T10:27:49;2.37;;;2.27;;
5379;SDS011;2713;42.680;23.310;2023-03-01T10:30:21;2.20;;;2.10;;
5379;SDS011;2713;42.680;23.310;2023-03-01T10:32:55;2.67;;;2.07;;
5379;SDS011;2713;42.680;23.310;2023-03-01T10:35:24;2.50;;;2.30;;
5379;SDS011;2713;42.680;23.310;2023-03-01T10:37:56;2.50;;;2.30;;
5379;SDS011;2713;42.680;23.310;2023-03-01T10:40:24;2.57;;;2.40;;
5379;SDS011;2713;42.680;23.310;2023-03-01T10:42:51;3.20;;;2.70;;
5379;SDS011;2713;42.680;23.310;2023-03-01T10:45:27;2.90;;;2.40;;
5379;SDS011;2713;42.680;23.310;2023-03-01T10:48:05;2.70;;;2.50;;
5379;SDS011;2713;42.680;23.310;2023-03-01T10:50:37;2.70;;;2.50;;
5379;SDS011;2713;42.680;23.310;2023-03-01T10:53:08;2.60;;;2.40;;
5379;SDS011;2713;42.680;23.310;2023-03-01T10:55:46;2.40;;;2.00;;
5379;SDS011;2713;42.680;23.310;2023-03-01T10:58:22;5.00;;;2.50;;
5379;SDS011;2713;42.680;23.310;2023-03-01T11:00:51;2.67;;;2.47;;
5379;SDS011;2713;42.680;23.310;2023-03-01T11:03:24;3.07;;;2.87;;
5379;SDS011;2713;42.680;23.310;2023-03-01T11:05:53;3.00;;;2.27;;
5379;SDS011;2713;42.680;23.310;2023-03-01T11:08:35;3.07;;;2.73;;
5379;SDS011;2713;42.680;23.310;2023-03-01T11:11:13;2.77;;;2.57;;
5379;SDS011;2713;42.680;23.310;2023-03-01T11:13:49;2.47;;;2.10;;
5379;SDS011;2713;42.680;23.310;2023-03-01T11:16:31;2.43;;;2.23;;
5379;SDS011;2713;42.680;23.310;2023-03-01T11:19:01;3.17;;;2.33;;
5379;SDS011;2713;42.680;23.310;2023-03-01T11:21:41;2.47;;;2.27;;
5379;SDS011;2713;42.680;23.310;2023-03-01T11:24:14;2.23;;;1.90;;
5379;SDS011;2713;42.680;23.310;2023-03-01T11:26:43;2.87;;;2.67;;
5379;SDS011;2713;42.680;23.310;2023-03-01T11:29:17;2.37;;;1.93;;
5379;SDS011;2713;42.680;23.310;2023-03-01T11:31:54;6.07;;;3.13;;
5379;SDS011;2713;42.680;23.310;2023-03-01T11:34:29;2.47;;;2.27;;
5379;SDS011;2713;42.680;23.310;2023-03-01T11:37:08;2.50;;;2.03;;
5379;SDS011;2713;42.680;23.310;2023-03-01T11:39:43;3.07;;;1.70;;
5379;SDS011;2713;42.680;23.310;2023-03-01T11:42:18;1.90;;;1.80;;
5379;SDS011;2713;42.680;23.310;2023-03-01T11:44:52;3.23;;;2.10;;
5379;SDS011;2713;42.680;23.310;2023-03-01T11:47:29;2.57;;;2.37;;
5379;SDS011;2713;42.680;23.310;2023-03-01T11:50:11;2.83;;;2.63;;
5379;SDS011;2713;42.680;23.310;2023-03-01T11:52:48;2.27;;;2.13;;
5379;SDS011;2713;42.680;23.310;2023-03-01T11:55:34;2.40;;;2.20;;
5379;SDS011;2713;42.680;23.310;2023-03-01T11:58:17;3.23;;;3.03;;
5379;SDS011;2713;42.680;23.310;2023-03-01T12:01:06;3.20;;;3.00;;
5379;SDS011;2713;42.680;23.310;2023-03-01T12:04:02;3.40;;;3.10;;
5379;SDS011;2713;42.680;23.310;2023-03-01T12:06:50;3.27;;;3.03;;
5379;SDS011;2713;42.680;23.310;2023-03-01T12:09:26;2.90;;;2.80;;
5379;SDS011;2713;42.680;23.310;2023-03-01T12:12:11;3.40;;;3.10;;
5379;SDS011;2713;42.680;23.310;2023-03-01T12:14:55;3.13;;;2.87;;
5379;SDS011;2713;42.680;23.310;2023-03-01T12:17:54;3.73;;;3.43;;
5379;SDS011;2713;42.680;23.310;2023-03-01T12:20:38;3.30;;;3.10;;
5379;SDS011;2713;42.680;23.310;2023-03-01T12:23:25;3.53;;;3.33;;
5379;SDS011;2713;42.680;23.310;2023-03-01T12:26:07;3.47;;;3.17;;
5379;SDS011;2713;42.680;23.310;2023-03-01T12:28:51;3.97;;;3.33;;
5379;SDS011;2713;42.680;23.310;2023-03-01T12:34:39;5.00;;;4.50;;
5379;SDS011;2713;42.680;23.310;2023-03-01T12:37:23;4.10;;;3.80;;
5379;SDS011;2713;42.680;23.310;2023-03-01T12:40:03;3.90;;;3.50;;
5379;SDS011;2713;42.680;23.310;2023-03-01T12:42:44;4.67;;;3.53;;
5379;SDS011;2713;42.680;23.310;2023-03-01T12:45:26;4.23;;;3.83;;
5379;SDS011;2713;42.680;23.310;2023-03-01T12:48:08;4.80;;;4.40;;
5379;SDS011;2713;42.680;23.310;2023-03-01T12:50:51;6.47;;;3.90;;
5379;SDS011;2713;42.680;23.310;2023-03-01T12:53:22;4.00;;;3.70;;
5379;SDS011;2713;42.680;23.310;2023-03-01T12:55:51;4.00;;;3.70;;
5379;SDS011;2713;42.680;23.310;2023-03-01T12:58:22;3.87;;;3.57;;
5379;SDS011;2713;42.680;23.310;2023-03-01T13:00:59;4.20;;;3.80;;
5379;SDS011;2713;42.680;23.310;2023-03-01T13:03:32;5.13;;;4.10;;
5379;SDS011;2713;42.680;23.310;2023-03-01T13:06:25;4.00;;;3.60;;
5379;SDS011;2713;42.680;23.310;2023-03-01T13:09:06;7.53;;;4.33;;
5379;SDS011;2713;42.680;23.310;2023-03-01T13:11:43;4.83;;;4.13;;
5379;SDS011;2713;42.680;23.310;2023-03-01T13:17:03;4.33;;;3.80;;
5379;SDS011;2713;42.680;23.310;2023-03-01T13:19:30;3.63;;;3.33;;
5379;SDS011;2713;42.680;23.310;2023-03-01T13:21:57;4.33;;;3.93;;
5379;SDS011;2713;42.680;23.310;2023-03-01T13:24:33;5.50;;;3.97;;
5379;SDS011;2713;42.680;23.310;2023-03-01T13:27:10;4.33;;;3.53;;
5379;SDS011;2713;42.680;23.310;2023-03-01T13:29:51;3.40;;;3.10;;
5379;SDS011;2713;42.680;23.310;2023-03-01T13:32:20;4.13;;;3.33;;
5379;SDS011;2713;42.680;23.310;2023-03-01T13:34:49;3.70;;;3.40;;
5379;SDS011;2713;42.680;23.310;2023-03-01T13:37:22;3.13;;;2.83;;
5379;SDS011;2713;42.680;23.310;2023-03-01T13:39:56;3.83;;;3.47;;
5379;SDS011;2713;42.680;23.310;2023-03-01T13:42:31;3.60;;;3.10;;
5379;SDS011;2713;42.680;23.310;2023-03-01T13:45:02;3.23;;;2.97;;
5379;SDS011;2713;42.680;23.310;2023-03-01T13:47:32;3.00;;;2.80;;
5379;SDS011;2713;42.680;23.310;2023-03-01T13:50:03;3.07;;;2.80;;
5379;SDS011;2713;42.680;23.310;2023-03-01T13:52:34;3.30;;;3.00;;
5379;SDS011;2713;42.680;23.310;2023-03-01T13:55:14;3.80;;;3.13;;
5379;SDS011;2713;42.680;23.310;2023-03-01T13:57:46;4.57;;;3.30;;
5379;SDS011;2713;42.680;23.310;2023-03-01T14:00:29;3.60;;;3.17;;
5379;SDS011;2713;42.680;23.310;2023-03-01T14:03:04;5.50;;;3.30;;
5379;SDS011;2713;42.680;23.310;2023-03-01T14:05:35;3.33;;;3.03;;
5379;SDS011;2713;42.680;23.310;2023-03-01T14:08:02;3.40;;;3.17;;
5379;SDS011;2713;42.680;23.310;2023-03-01T14:10:36;3.93;;;3.57;;
5379;SDS011;2713;42.680;23.310;2023-03-01T14:13:18;4.30;;;3.90;;
5379;SDS011;2713;42.680;23.310;2023-03-01T14:16:00;4.60;;;3.93;;
5379;SDS011;2713;42.680;23.310;2023-03-01T14:18:39;4.80;;;3.63;;
5379;SDS011;2713;42.680;23.310;2023-03-01T14:21:14;3.63;;;3.27;;
5379;SDS011;2713;42.680;23.310;2023-03-01T14:23:42;4.00;;;3.57;;
5379;SDS011;2713;42.680;23.310;2023-03-01T14:26:10;3.30;;;2.73;;
5379;SDS011;2713;42.680;23.310;2023-03-01T14:28:37;3.00;;;2.70;;
5379;SDS011;2713;42.680;23.310;2023-03-01T14:33:59;3.30;;;3.00;;
5379;SDS011;2713;42.680;23.310;2023-03-01T14:36:26;4.20;;;3.50;;
5379;SDS011;2713;42.680;23.310;2023-03-01T14:38:54;3.70;;;3.27;;
5379;SDS011;2713;42.680;23.310;2023-03-01T14:41:25;3.53;;;3.23;;
5379;SDS011;2713;42.680;23.310;2023-03-01T14:43:55;3.40;;;3.10;;
5379;SDS011;2713;42.680;23.310;2023-03-01T14:46:25;3.57;;;2.80;;
5379;SDS011;2713;42.680;23.310;2023-03-01T14:48:57;3.77;;;3.47;;
5379;SDS011;2713;42.680;23.310;2023-03-01T14:51:28;3.43;;;3.13;;
5379;SDS011;2713;42.680;23.310;2023-03-01T14:53:55;2.87;;;2.67;;
5379;SDS011;2713;42.680;23.310;2023-03-01T14:56:22;9.63;;;3.30;;
5379;SDS011;2713;42.680;23.310;2023-03-01T14:58:52;4.50;;;2.70;;
5379;SDS011;2713;42.680;23.310;2023-03-01T15:01:20;3.07;;;2.77;;
5379;SDS011;2713;42.680;23.310;2023-03-01T15:03:48;5.10;;;2.87;;
5379;SDS011;2713;42.680;23.310;2023-03-01T15:06:17;5.20;;;2.60;;
5379;SDS011;2713;42.680;23.310;2023-03-01T15:08:46;3.50;;;2.77;;
5379;SDS011;2713;42.680;23.310;2023-03-01T15:11:17;3.17;;;2.80;;
5379;SDS011;2713;42.680;23.310;2023-03-01T15:13:49;3.83;;;2.73;;
5379;SDS011;2713;42.680;23.310;2023-03-01T15:16:18;3.40;;;2.67;;
5379;SDS011;2713;42.680;23.310;2023-03-01T15:18:48;4.77;;;3.10;;
5379;SDS011;2713;42.680;23.310;2023-03-01T15:21:17;3.03;;;2.83;;
5379;SDS011;2713;42.680;23.310;2023-03-01T15:23:48;6.00;;;3.20;;
5379;SDS011;2713;42.680;23.310;2023-03-01T15:26:26;5.13;;;3.17;;
5379;SDS011;2713;42.680;23.310;2023-03-01T15:28:55;2.50;;;2.30;;
5379;SDS011;2713;42.680;23.310;2023-03-01T15:31:27;3.07;;;2.80;;
5379;SDS011;2713;42.680;23.310;2023-03-01T15:34:07;5.77;;;2.70;;
5379;SDS011;2713;42.680;23.310;2023-03-01T15:36:42;3.30;;;3.00;;